Data for 09/19/2009

Time Sea-Level Adjusted Pressure Absolute Pressure Temperature Relative Humidity Dew Point   
(mb) (inHg) (mb) (inHg) (C) (F) (%) (C) (F)
00:05 1020 30.12 849 25.07 20 68 40 6.1 42.9
00:10 1019 30.09 849 25.07 20.2 68.3 39 6.1 42.9
00:15 1020 30.12 849 25.07 20.1 68.1 40 6.3 43.4
00:20 1019 30.09 849 25.07 19.7 67.5 41 6.4 43.5
00:25 1020 30.12 849 25.07 19.4 67 42 6.3 43.4
00:30 1020 30.12 849 25.07 19.2 66.6 43 6.4 43.6
00:35 1019 30.09 849 25.07 19.1 66.4 43 6.3 43.3
00:40 1019 30.09 849 25.07 19 66.2 43 6.3 43.4
00:45 1019 30.09 849 25.07 19 66.2 43 6.3 43.3
00:50 1019 30.09 849 25.07 18.9 66.1 43 6.3 43.3
00:55 1019 30.09 849 25.07 18.9 66 44 6.4 43.5
01:00 1019 30.09 849 25.07 19 66.2 43 6.3 43.3
01:05 1019 30.09 849 25.07 19.3 66.8 42 6.2 43.1
01:10 1019 30.09 849 25.07 19.4 66.8 42 6.2 43.1
01:15 1019 30.09 849 25.07 19.2 66.6 43 6.4 43.4
01:20 1019 30.09 849 25.07 19.1 66.3 43 6.2 43.2
01:25 1019 30.09 849 25.07 18.9 65.9 43 6.1 43
01:30 1019 30.09 849 25.07 18.7 65.6 44 6.3 43.4
01:35 1019 30.09 849 25.07 18.7 65.6 44 6.2 43.2
01:40 1019 30.09 849 25.07 18.6 65.4 44 6.2 43.2
01:45 1019 30.09 849 25.07 18.5 65.2 45 6.6 43.8
01:50 1019 30.09 849 25.07 18.2 64.7 45 6.3 43.3
01:55 1019 30.09 849 25.07 18.1 64.6 50 7.7 45.8
02:00 1019 30.09 849 25.07 18 64.4 47 6.6 43.9
02:05 1019 30.09 849 25.07 17.7 63.9 51 7.5 45.4
02:10 1019 30.09 849 25.07 17.6 63.6 47 6.2 43.2
02:15 1019 30.09 849 25.07 17.3 63.1 48 6.3 43.4
02:20 1019 30.09 849 25.07 17.1 62.9 48 6.1 42.9
02:25 1019 30.09 849 25.07 17.3 63.1 47 6.1 43
02:30 1019 30.09 849 25.07 17.4 63.4 47 6 42.8
02:35 1019 30.09 849 25.07 17.6 63.6 46 6.1 42.9
02:40 1019 30.09 848 25.04 17.5 63.6 46 6 42.9
02:45 1019 30.09 848 25.04 17.4 63.3 48 6.2 43.2
02:50 1019 30.09 848 25.04 17.1 62.7 48 6.2 43.2
02:55 1019 30.09 848 25.04 16.8 62.3 49 6.2 43.2
03:00 1019 30.09 848 25.04 16.7 62 50 6.2 43.1
03:05 1019 30.09 848 25.04 16.6 61.9 49 6.1 42.9
03:10 1019 30.09 848 25.04 16.7 62.1 50 6.4 43.4
03:15 1019 30.09 848 25.04 17 62.6 48 5.9 42.7
03:20 1019 30.09 848 25.04 17 62.6 48 6 42.8
03:25 1019 30.09 848 25.04 17 62.6 48 6 42.8
03:30 1019 30.09 848 25.04 17 62.5 47 5.8 42.4
03:35 1019 30.09 848 25.04 17 62.6 47 5.8 42.4
03:40 1019 30.09 848 25.04 17 62.6 47 5.8 42.5
03:45 1019 30.09 848 25.04 16.9 62.3 47 5.7 42.3
03:50 1019 30.09 848 25.04 16.7 62 48 5.8 42.5
03:55 1019 30.09 848 25.04 16.4 61.5 48 5.6 42
04:00 1019 30.09 848 25.04 16.4 61.5 48 5.6 42
04:05 1019 30.09 848 25.04 16.3 61.3 48 5.5 41.9
04:10 1019 30.09 848 25.04 16.4 61.4 48 5.4 41.8
04:15 1019 30.09 848 25.04 16.4 61.4 50 5.9 42.6
04:20 1019 30.09 848 25.04 16.4 61.5 48 5.3 41.6
04:25 1019 30.09 848 25.04 16.5 61.7 48 5.5 41.9
04:30 1019 30.09 848 25.04 16.5 61.6 48 5.5 41.8
04:35 1019 30.09 848 25.04 16.4 61.5 48 5.3 41.6
04:40 1019 30.09 848 25.04 16.4 61.5 49 5.7 42.2
04:45 1019 30.09 848 25.04 16.3 61.3 49 5.6 42
04:50 1019 30.09 848 25.04 16.1 61 49 5.6 42
04:55 1019 30.09 848 25.04 16 60.9 50 5.7 42.3
05:00 1019 30.09 848 25.04 15.8 60.5 49 5.3 41.5
05:05 1018 30.06 848 25.04 15.6 60 51 5.5 41.8
05:10 1018 30.06 848 25.04 15.5 59.8 48 4.5 40.2
05:15 1018 30.06 848 25.04 15.5 59.9 50 5.1 41.2
05:20 1019 30.09 848 25.04 15.7 60.2 47 4.3 39.8
05:25 1018 30.06 848 25.04 15.9 60.6 46 4.3 39.7
05:30 1018 30.06 848 25.04 16 60.9 46 4.4 40
05:35 1018 30.06 848 25.04 15.8 60.5 46 4.5 40
05:40 1018 30.06 848 25.04 15.7 60.3 47 4.5 40.2
05:45 1018 30.06 848 25.04 15.5 59.9 48 4.6 40.3
05:50 1018 30.06 847 25.01 15.3 59.6 48 4.5 40.1
05:55 1018 30.06 847 25.01 15.4 59.7 48 4.7 40.4
06:00 1018 30.06 847 25.01 15.1 59.1 49 4.5 40.1
06:05 1018 30.06 847 25.01 14.9 58.9 49 4.3 39.7
06:10 1018 30.06 847 25.01 15.1 59.2 48 4.2 39.6
06:15 1018 30.06 847 25.01 15.3 59.5 47 4.2 39.5
06:20 1018 30.06 847 25.01 15.6 60 46 4.1 39.4
06:25 1018 30.06 847 25.01 15.7 60.2 45 3.9 39
06:30 1018 30.06 847 25.01 15.6 60 45 3.7 38.7
06:35 1018 30.06 847 25.01 15.6 60 44 3.6 38.5
06:40 1018 30.06 847 25.01 15.5 60 44 3.4 38.2
06:45 1018 30.06 847 25.01 15.6 60 44 3.4 38.1
06:50 1018 30.06 847 25.01 15.7 60.3 43 3.1 37.7
06:55 1018 30.06 847 25.01 15.7 60.3 43 3.2 37.8
07:00 1018 30.06 847 25.01 15.8 60.5 42 2.9 37.3
07:05 1018 30.06 847 25.01 15.9 60.6 48 4.9 40.9
07:10 1018 30.06 847 25.01 15.7 60.2 44 3.4 38.1
07:15 1018 30.06 847 25.01 15.4 59.7 44 3.4 38.2
07:20 1018 30.06 847 25.01 15.4 59.6 44 3.4 38.1
07:25 1018 30.06 847 25.01 15.3 59.6 45 3.6 38.5
07:30 1018 30.06 848 25.04 15.4 59.8 45 3.6 38.4
07:35 1018 30.06 848 25.04 15.5 59.9 45 3.8 38.8
07:40 1018 30.06 848 25.04 15.4 59.8 45 3.8 38.8
07:45 1018 30.06 848 25.04 15.6 60.1 46 4.1 39.5
07:50 1018 30.06 847 25.01 15.7 60.3 46 4.2 39.5
07:55 1018 30.06 848 25.04 16.2 61.1 44 4.1 39.4
08:00 1018 30.06 848 25.04 16.7 62.1 43 4.1 39.3
08:05 1018 30.06 848 25.04 17 62.6 43 4.6 40.3
08:10 1018 30.06 847 25.01 17.1 62.8 42 4.3 39.8
08:15 1018 30.06 847 25.01 17.7 63.9 41 4.3 39.8
08:20 1018 30.06 848 25.04 18.1 64.6 41 4.6 40.3
08:25 1018 30.06 847 25.01 18.3 64.9 43 5.5 42
08:30 1018 30.06 847 25.01 18.3 65 42 5.4 41.8
08:35 1018 30.06 847 25.01 18 64.4 44 5.6 42.1
08:40 1018 30.06 847 25.01 18.1 64.5 41 4.7 40.4
08:45 1018 30.06 847 25.01 18.1 64.7 39 4 39.2
08:50 1018 30.06 847 25.01 18.2 64.8 41 5 41
08:55 1018 30.06 847 25.01 18.6 65.6 39 4.5 40.1
09:00 1018 30.06 847 25.01 19.3 66.7 39 5.2 41.4
09:05 1018 30.06 847 25.01 19.2 66.6 41 5.7 42.2
09:10 1018 30.06 847 25.01 20 68 38 5.5 41.9
09:15 1018 30.06 847 25.01 20.1 68.1 40 6.1 43
09:20 1018 30.06 847 25.01 19.9 67.9 39 5.6 42.1
09:25 1018 30.06 847 25.01 20.6 69.1 38 5.8 42.4
09:30 1018 30.06 847 25.01 20.9 69.7 37 5.7 42.3
09:35 1018 30.06 847 25.01 21.3 70.4 34 4.9 40.8
09:40 1018 30.06 847 25.01 22.3 72.2 31 4.8 40.6
09:45 1018 30.06 847 25.01 22.2 72 32 4.9 40.8
09:50 1018 30.06 847 25.01 22.9 73.2 29 4.3 39.8
09:55 1018 30.06 847 25.01 23.1 73.6 30 4.9 40.8
10:00 1018 30.06 847 25.01 23.7 74.7 29 4.7 40.4
10:05 1018 30.06 847 25.01 24.1 75.4 28 4.8 40.7
10:10 1018 30.06 847 25.01 24.4 75.9 28 4.8 40.6
10:15 1018 30.06 847 25.01 24.9 76.7 26 4.5 40.1
10:20 1018 30.06 847 25.01 24.7 76.4 26 4.2 39.5
10:25 1018 30.06 847 25.01 24.5 76 28 5 41.1
10:30 1018 30.06 847 25.01 24.3 75.8 29 5.5 41.9
10:35 1018 30.06 847 25.01 24.4 75.9 27 4.6 40.3
10:40 1017 30.03 847 25.01 24.7 76.5 26 4.1 39.3
10:45 1017 30.03 847 25.01 24.6 76.3 24 2.7 36.9
10:50 1017 30.03 847 25.01 24.8 76.7 24 2.9 37.2
10:55 1017 30.03 847 25.01 25 77 26 4.6 40.2
11:00 1017 30.03 847 25.01 25.3 77.6 25 4.4 39.9
11:05 1017 30.03 846 24.98 25.2 77.4 26 4.8 40.6
11:10 1017 30.03 846 24.98 25.7 78.3 25 4.2 39.6
11:15 1017 30.03 846 24.98 26.2 79.1 23 4 39.2
11:20 1017 30.03 846 24.98 27 80.6 23 4.4 40
11:25 1017 30.03 846 24.98 26.7 80 24 4.9 40.8
11:30 1017 30.03 846 24.98 26.6 79.9 24 4.6 40.3
11:35 1017 30.03 846 24.98 27 80.6 23 4.5 40.1
11:40 1017 30.03 846 24.98 27.7 81.9 21 3.9 39.1
11:45 1017 30.03 846 24.98 27.7 81.9 22 4.6 40.2
11:50 1017 30.03 846 24.98 28.2 82.7 20 3.7 38.7
11:55 1017 30.03 846 24.98 27.9 82.1 21 4 39.2
12:00 1017 30.03 846 24.98 28.3 82.9 20 3.7 38.6
12:05 1017 30.03 846 24.98 28.2 82.7 20 3.7 38.7
12:10 1016 30 846 24.98 28.7 83.6 19 3.1 37.5
12:15 1016 30 845 24.95 29.1 84.3 19 3.2 37.7
12:20 1016 30 845 24.95 28.8 83.9 20 4 39.1
12:25 1016 30 845 24.95 29.1 84.4 20 4.3 39.7
12:30 1016 30 845 24.95 28.8 83.8 20 3.6 38.5
12:35 1016 30 845 24.95 28.4 83.1 21 4.1 39.3
12:40 1016 30 845 24.95 28.1 82.6 21 3.8 38.8
12:45 1016 30 845 24.95 28.2 82.7 19 2.8 37
12:50 1016 30 845 24.95 28.6 83.4 19 2.9 37.2
12:55 1016 30 845 24.95 28.4 83.1 19 2.6 36.6
13:00 1016 30 845 24.95 28.3 83 18 2.2 36
13:05 1016 30 845 24.95 28.9 84.1 18 2.4 36.4
13:10 1016 30 845 24.95 29 84.2 18 2.6 36.8
13:15 1016 30 845 24.95 28.4 83.1 19 3 37.4
13:20 1016 30 845 24.95 28.2 82.8 19 2.7 36.9
13:25 1015 29.97 845 24.95 29.9 85.7 16 1.7 35
13:30 1015 29.97 845 24.95 30.1 86.1 15 0.6 33.1
13:35 1015 29.97 845 24.95 30.1 86.3 15 0.7 33.3
13:40 1015 29.97 844 24.92 29.4 85 15 -0 32
13:45 1015 29.97 844 24.92 29.3 84.7 14 -0.2 31.7
13:50 1015 29.97 844 24.92 29 84.2 15 -0.3 31.5
13:55 1015 29.97 844 24.92 29.6 85.3 14 -0 32
14:00 1015 29.97 844 24.92 29 84.1 15 0 32
14:05 1015 29.97 844 24.92 29.7 85.4 14 0.2 32.3
14:10 1015 29.97 844 24.92 29.5 85.1 15 0.9 33.5
14:15 1015 29.97 844 24.92 28.6 83.4 16 0.9 33.6
14:20 1015 29.97 844 24.92 28.3 82.9 16 0.5 33
14:25 1015 29.97 844 24.92 28.3 82.9 16 0 32.1
14:30 1015 29.97 844 24.92 28.6 83.4 17 1.3 34.4
14:35 1014 29.94 844 24.92 28.8 83.9 17 1.8 35.2
14:40 1014 29.94 844 24.92 29.6 85.2 17 2.5 36.5
14:45 1014 29.94 844 24.92 29.1 84.4 18 2.4 36.3
14:50 1014 29.94 843 24.89 29.1 84.3 16 0.7 33.3
14:55 1014 29.94 843 24.89 28.8 83.8 17 2 35.5
15:00 1014 29.94 843 24.89 29 84.3 20 3.9 39
15:05 1014 29.94 843 24.89 29.3 84.7 16 1 33.9
15:10 1014 29.94 843 24.89 29.1 84.3 16 0.8 33.5
15:15 1014 29.94 843 24.89 29.1 84.3 17 1.8 35.3
15:20 1014 29.94 843 24.89 30.1 86.3 14 0.5 33
15:25 1014 29.94 843 24.89 30.1 86.1 15 1.1 34
15:30 1014 29.94 843 24.89 29.5 85.1 14 -0.3 31.5
15:35 1014 29.94 843 24.89 29.8 85.6 15 0.5 32.9
15:40 1014 29.94 843 24.89 29.9 85.8 15 0.8 33.4
15:45 1013 29.91 843 24.89 29.8 85.7 14 0.3 32.5
15:50 1013 29.91 843 24.89 29.8 85.7 15 0.5 33
15:55 1013 29.91 843 24.89 30 85.9 14 0.3 32.5
16:00 1013 29.91 843 24.89 30.1 86.2 15 1 33.8
16:05 1013 29.91 843 24.89 29.7 85.4 15 0.8 33.5
16:10 1013 29.91 843 24.89 29.4 85 15 0.6 33.2
16:15 1013 29.91 842 24.86 29.7 85.4 15 0.6 33
16:20 1013 29.91 842 24.86 29.7 85.5 15 0.9 33.6
16:25 1013 29.91 842 24.86 29.3 84.7 15 0.4 32.6
16:30 1013 29.91 842 24.86 28.9 84 15 -0.3 31.5
16:35 1013 29.91 842 24.86 29.1 84.3 15 0 32
16:40 1013 29.91 842 24.86 29.7 85.4 15 0.2 32.4
16:45 1013 29.91 842 24.86 30.5 86.9 14 0.1 32.2
16:50 1013 29.91 842 24.86 30.9 87.7 14 1.2 34.1
16:55 1013 29.91 842 24.86 31.2 88.2 14 1 33.8
17:00 1013 29.91 842 24.86 31.1 88 13 0.3 32.5
17:05 1013 29.91 842 24.86 30.9 87.7 14 0.4 32.7
17:10 1013 29.91 842 24.86 31.2 88.1 14 0.8 33.4
17:15 1013 29.91 842 24.86 31.2 88.1 14 1.1 34
17:20 1013 29.91 842 24.86 30.9 87.6 15 1.2 34.2
17:25 1013 29.91 842 24.86 30.6 87 14 0.7 33.3
17:30 1012 29.88 842 24.86 30.3 86.5 15 1.2 34.2
17:35 1012 29.88 842 24.86 30.2 86.4 15 1.3 34.3
17:40 1012 29.88 841 24.83 29.7 85.4 16 1.1 34
17:45 1012 29.88 841 24.83 29.4 84.9 15 0.6 33
17:50 1012 29.88 841 24.83 29.2 84.6 16 0.8 33.4
17:55 1012 29.88 841 24.83 29.7 85.4 15 1 33.8
18:00 1012 29.88 841 24.83 29.7 85.5 15 0.6 33.1
18:05 1012 29.88 841 24.83 29.6 85.3 15 1 33.7
18:10 1012 29.88 841 24.83 29.5 85.1 15 0.5 33
18:15 1012 29.88 841 24.83 29.3 84.7 15 0.2 32.4
18:20 1012 29.88 841 24.83 28.7 83.7 17 1.6 34.9
18:25 1012 29.88 841 24.83 28.6 83.6 16 0.8 33.5
18:30 1012 29.88 841 24.83 28.2 82.8 15 -0.1 31.8
18:35 1012 29.88 841 24.83 28.1 82.5 17 1 33.8
18:40 1012 29.88 841 24.83 28 82.3 17 1 33.8
18:45 1012 29.88 841 24.83 27.6 81.6 18 1.6 34.9
18:50 1012 29.88 841 24.83 27 80.7 19 1.5 34.6
18:55 1012 29.88 841 24.83 26.8 80.2 18 0.9 33.7
19:00 1012 29.88 841 24.83 26.3 79.3 19 1.4 34.5
19:05 1012 29.88 841 24.83 25.8 78.4 20 1.4 34.5
19:10 1012 29.88 841 24.83 25.6 78 20 1.2 34.1
19:15 1012 29.88 841 24.83 25.6 78 19 0.3 32.6
19:20 1012 29.88 841 24.83 25.8 78.4 19 0.3 32.6
19:25 1012 29.88 841 24.83 25.9 78.6 19 0.7 33.3
19:30 1012 29.88 841 24.83 25.5 77.9 19 0.8 33.4
19:35 1012 29.88 841 24.83 25.1 77.2 20 1 33.8
19:40 1013 29.91 842 24.86 25 76.9 24 3.2 37.8
19:45 1013 29.91 842 24.86 24.4 75.9 24 3 37.4
19:50 1013 29.91 842 24.86 24.3 75.7 25 3.2 37.7
19:55 1013 29.91 843 24.89 24.2 75.5 26 3.9 39
20:00 1013 29.91 843 24.89 23.7 74.7 28 4.1 39.4
20:05 1014 29.94 843 24.89 23.2 73.8 29 4.2 39.6
20:10 1014 29.94 843 24.89 22.9 73.1 30 4.7 40.5
20:15 1014 29.94 843 24.89 22.5 72.6 33 5.4 41.8
20:20 1014 29.94 843 24.89 22.2 71.9 35 6.3 43.4
20:25 1014 29.94 843 24.89 21.7 71.1 33 5.1 41.2
20:30 1014 29.94 843 24.89 21.8 71.3 35 5.8 42.4
20:35 1014 29.94 843 24.89 21.5 70.8 36 6.1 42.9
20:40 1014 29.94 843 24.89 21.4 70.5 35 5.6 42
20:45 1014 29.94 843 24.89 21.7 71.1 32 4.5 40.2
20:50 1014 29.94 843 24.89 21.9 71.4 31 4.4 39.9
20:55 1014 29.94 843 24.89 22 71.6 32 4.9 40.8
21:00 1014 29.94 843 24.89 22 71.6 33 5.2 41.4
21:05 1014 29.94 843 24.89 22 71.5 33 5 41
21:10 1014 29.94 843 24.89 21.9 71.3 33 5.3 41.5
21:15 1014 29.94 843 24.89 21.8 71.3 31 4.3 39.7
21:20 1014 29.94 843 24.89 21.9 71.3 34 5.4 41.7
21:25 1014 29.94 843 24.89 22 71.6 29 3.3 38
21:30 1013 29.91 842 24.86 22.3 72.2 29 3.7 38.6
21:35 1013 29.91 842 24.86 22.3 72.1 28 3.2 37.8
21:40 1013 29.91 842 24.86 22.5 72.4 27 2.9 37.3
21:45 1013 29.91 842 24.86 23 73.3 26 2.8 37
21:50 1013 29.91 843 24.89 23 73.5 26 2.7 36.9
21:55 1014 29.94 843 24.89 23.1 73.6 28 3.7 38.6
22:00 1014 29.94 843 24.89 22.8 73 29 4.3 39.7
22:05 1014 29.94 843 24.89 22.7 72.8 27 2.9 37.2
22:10 1014 29.94 843 24.89 22.9 73.1 28 3.5 38.3
22:15 1014 29.94 843 24.89 22.7 72.8 29 3.9 39
22:20 1014 29.94 843 24.89 22.5 72.5 29 3.9 39
22:25 1014 29.94 843 24.89 22.1 71.8 30 4 39.1
22:30 1014 29.94 843 24.89 21.9 71.4 30 3.5 38.3
22:35 1014 29.94 843 24.89 21.7 71.1 31 3.9 39.1
22:40 1014 29.94 843 24.89 21.5 70.6 32 4.1 39.5
22:45 1014 29.94 843 24.89 21 69.8 33 4.3 39.8
22:50 1014 29.94 843 24.89 20.7 69.2 33 3.9 39.1
22:55 1014 29.94 843 24.89 20.4 68.8 34 4 39.3
23:00 1014 29.94 843 24.89 20.1 68.2 36 4.6 40.4
23:05 1014 29.94 843 24.89 19.7 67.4 37 4.7 40.5
23:10 1014 29.94 843 24.89 19.3 66.7 39 5.1 41.2
23:15 1014 29.94 843 24.89 19 66.1 41 5.4 41.7
23:20 1014 29.94 843 24.89 18.7 65.7 42 5.7 42.2
23:25 1014 29.94 843 24.89 18.7 65.7 42 5.7 42.3
23:30 1014 29.94 844 24.92 18.6 65.4 44 6.1 43
23:35 1014 29.94 844 24.92 18.6 65.4 43 6 42.8
23:40 1015 29.97 844 24.92 18.5 65.2 44 6.3 43.3
23:45 1015 29.97 844 24.92 18.5 65.3 45 6.4 43.5
23:50 1015 29.97 844 24.92 18.5 65.4 45 6.5 43.7
23:55 1015 29.97 844 24.92 18.5 65.3 45 6.6 43.9
24:00 1015 29.97 844 24.92 18.6 65.4 46 6.8 44.3